createdAt,value
2022-08-03T00:00:23.269Z,21.45
2022-08-03T00:01:23.158Z,21.46
2022-08-03T00:02:23.175Z,21.45
2022-08-03T00:03:23.228Z,21.46
2022-08-03T00:04:23.173Z,21.49
2022-08-03T00:05:23.138Z,21.48
2022-08-03T00:06:23.112Z,21.46
2022-08-03T00:07:23.103Z,21.45
2022-08-03T00:08:23.168Z,21.43
2022-08-03T00:09:23.072Z,21.42
2022-08-03T00:10:23.053Z,21.45
2022-08-03T00:11:23.059Z,21.45
2022-08-03T00:12:23.030Z,21.45
2022-08-03T00:13:23.126Z,21.46
2022-08-03T00:14:23.134Z,21.46
2022-08-03T00:15:23.001Z,21.48
2022-08-03T00:16:23.038Z,21.49
2022-08-03T00:17:23.035Z,21.46
2022-08-03T00:18:23.008Z,21.46
2022-08-03T00:19:22.971Z,21.48
2022-08-03T00:20:22.956Z,21.46
2022-08-03T00:21:22.935Z,21.45
2022-08-03T00:22:22.959Z,21.45
2022-08-03T00:23:22.954Z,21.45
2022-08-03T00:24:22.939Z,21.45
2022-08-03T00:25:22.922Z,21.43
2022-08-03T00:26:22.936Z,21.46
2022-08-03T00:27:22.899Z,21.48
2022-08-03T00:28:22.897Z,21.49
2022-08-03T00:29:22.920Z,21.51
2022-08-03T00:30:22.911Z,21.48
2022-08-03T00:31:39.777Z,21.48
2022-08-03T00:32:24.704Z,21.46
2022-08-03T00:33:22.848Z,21.43
2022-08-03T00:34:29.827Z,21.43
2022-08-03T00:35:31.803Z,21.40
2022-08-03T00:36:22.829Z,21.38
2022-08-03T00:37:22.789Z,21.36
2022-08-03T00:38:22.807Z,21.36
2022-08-03T00:39:22.739Z,21.33
2022-08-03T00:40:22.777Z,21.30
2022-08-03T00:41:22.735Z,21.28
2022-08-03T00:42:22.753Z,21.33
2022-08-03T00:43:22.753Z,21.33
2022-08-03T00:44:22.812Z,21.30
2022-08-03T00:45:22.734Z,21.33
2022-08-03T00:46:22.745Z,21.33
2022-08-03T00:47:22.702Z,21.36
2022-08-03T00:48:33.174Z,21.36
2022-08-03T00:49:22.705Z,21.33
2022-08-03T00:50:22.703Z,21.33
2022-08-03T00:51:22.615Z,21.33
2022-08-03T00:52:22.922Z,21.33
2022-08-03T00:53:22.644Z,21.31
2022-08-03T00:54:22.682Z,21.30
2022-08-03T00:55:22.605Z,21.31
2022-08-03T00:56:22.582Z,21.30
2022-08-03T00:57:22.572Z,21.31
2022-08-03T00:58:22.567Z,21.31
2022-08-03T00:59:22.564Z,21.31
2022-08-03T01:00:22.898Z,21.33
2022-08-03T01:01:22.598Z,21.30
2022-08-03T01:02:22.500Z,21.33
2022-08-03T01:03:22.513Z,21.30
2022-08-03T01:04:22.478Z,21.27
2022-08-03T01:05:22.460Z,21.26
2022-08-03T01:06:22.470Z,21.26
2022-08-03T01:07:22.461Z,21.26
2022-08-03T01:08:22.454Z,21.24
2022-08-03T01:09:22.421Z,21.24
2022-08-03T01:10:22.478Z,21.24
2022-08-03T01:11:22.394Z,21.24
2022-08-03T01:12:22.395Z,21.26
2022-08-03T01:14:02.068Z,21.26
2022-08-03T01:14:22.409Z,21.24
2022-08-03T01:15:22.355Z,21.19
2022-08-03T01:16:22.364Z,21.19
2022-08-03T01:17:22.344Z,21.16
2022-08-03T01:18:22.343Z,21.16
2022-08-03T01:19:22.316Z,21.13
2022-08-03T01:20:22.321Z,21.12
2022-08-03T01:21:22.290Z,21.12
2022-08-03T01:22:22.288Z,21.13
2022-08-03T01:23:22.291Z,21.12
2022-08-03T01:24:22.266Z,21.13
2022-08-03T01:25:22.252Z,21.16
2022-08-03T01:26:22.241Z,21.16
2022-08-03T01:27:22.231Z,21.16
2022-08-03T01:28:22.243Z,21.19
2022-08-03T01:29:22.214Z,21.22
2022-08-03T01:30:22.206Z,21.21
2022-08-03T01:31:22.231Z,21.22
2022-08-03T01:33:02.686Z,21.21
2022-08-03T01:33:22.187Z,21.22
2022-08-03T01:34:22.156Z,21.19
2022-08-03T01:35:22.153Z,21.19
2022-08-03T01:36:22.142Z,21.18
2022-08-03T01:37:22.123Z,21.16
2022-08-03T01:38:22.142Z,21.12
2022-08-03T01:39:22.106Z,21.09
2022-08-03T01:40:22.094Z,21.05
2022-08-03T01:41:22.077Z,21.05
2022-08-03T01:42:22.073Z,21.01
2022-08-03T01:44:27.144Z,21.01
2022-08-03T01:44:34.961Z,21.01
2022-08-03T01:45:22.046Z,21.01
2022-08-03T01:46:22.032Z,20.98
2022-08-03T01:47:22.019Z,21.01
2022-08-03T01:48:22.026Z,21.01
2022-08-03T01:49:22.002Z,21.05
2022-08-03T01:50:21.987Z,21.06
2022-08-03T01:51:21.977Z,21.09
2022-08-03T01:52:21.982Z,21.09
2022-08-03T01:53:21.988Z,21.09
2022-08-03T01:54:21.946Z,21.09
2022-08-03T01:55:21.933Z,21.08
2022-08-03T01:56:21.928Z,21.06
2022-08-03T01:57:21.919Z,21.08
2022-08-03T01:59:32.275Z,21.06
2022-08-03T02:00:33.253Z,21.05
2022-08-03T02:02:29.075Z,21.05
2022-08-03T02:02:39.779Z,21.03
2022-08-03T02:03:33.242Z,21.01
2022-08-03T02:04:33.214Z,21.00
2022-08-03T02:05:33.218Z,21.00
2022-08-03T02:07:02.355Z,21.00
2022-08-03T02:07:33.198Z,21.05
2022-08-03T02:08:33.190Z,21.05
2022-08-03T02:09:33.191Z,21.06
2022-08-03T02:10:35.116Z,21.06
2022-08-03T02:11:33.145Z,21.05
2022-08-03T02:12:33.130Z,21.05
2022-08-03T02:13:33.147Z,21.08
2022-08-03T02:14:33.134Z,21.09
2022-08-03T02:15:33.141Z,21.06
2022-08-03T02:16:33.089Z,21.08
2022-08-03T02:17:38.541Z,21.08
2022-08-03T02:18:33.096Z,21.05
2022-08-03T02:19:35.783Z,21.00
2022-08-03T02:20:33.082Z,21.00
2022-08-03T02:21:56.468Z,21.00
2022-08-03T02:22:33.034Z,21.01
2022-08-03T02:23:33.069Z,21.03
2022-08-03T02:24:33.017Z,21.03
2022-08-03T02:25:33.015Z,21.03
2022-08-03T02:26:32.985Z,21.03
2022-08-03T02:27:32.988Z,21.05
2022-08-03T02:28:32.972Z,21.08
2022-08-03T02:29:39.262Z,21.12
2022-08-03T02:30:32.951Z,21.11
2022-08-03T02:31:32.938Z,21.11
2022-08-03T02:32:32.940Z,21.12
2022-08-03T02:33:32.919Z,21.11
2022-08-03T02:34:33.077Z,21.11
2022-08-03T02:35:32.897Z,21.09
2022-08-03T02:36:32.887Z,21.08
2022-08-03T02:37:32.887Z,21.08
2022-08-03T02:38:32.891Z,21.08
2022-08-03T02:39:32.865Z,21.09
2022-08-03T02:40:32.857Z,21.09
2022-08-03T02:41:32.855Z,21.09
2022-08-03T02:42:32.840Z,21.11
2022-08-03T02:43:39.192Z,21.11
2022-08-03T02:44:32.874Z,21.11
2022-08-03T02:45:32.793Z,21.13
2022-08-03T02:46:32.781Z,21.16
2022-08-03T02:47:53.212Z,21.21
2022-08-03T02:48:32.764Z,21.22
2022-08-03T02:49:51.075Z,21.24
2022-08-03T02:50:32.764Z,21.26
2022-08-03T02:51:32.768Z,21.26
2022-08-03T02:52:32.721Z,21.24
2022-08-03T02:53:32.721Z,21.24
2022-08-03T02:54:32.707Z,21.21
2022-08-03T02:55:32.698Z,21.21
2022-08-03T02:56:32.734Z,21.21
2022-08-03T02:57:32.668Z,21.21
2022-08-03T02:58:32.656Z,21.21
2022-08-03T02:59:32.677Z,21.21
2022-08-03T03:00:32.671Z,21.19
2022-08-03T03:01:32.789Z,21.19
2022-08-03T03:02:32.626Z,21.18
2022-08-03T03:03:35.289Z,21.18
2022-08-03T03:04:33.224Z,21.18
2022-08-03T03:05:53.693Z,21.16
2022-08-03T03:06:32.547Z,21.16
2022-08-03T03:07:39.108Z,21.19
2022-08-03T03:08:32.561Z,21.21
2022-08-03T03:09:41.844Z,21.21
2022-08-03T03:10:32.551Z,21.19
2022-08-03T03:11:32.484Z,21.18
2022-08-03T03:12:32.487Z,21.21
2022-08-03T03:13:32.451Z,21.19
2022-08-03T03:14:33.649Z,21.22
2022-08-03T03:15:32.449Z,21.24
2022-08-03T03:16:32.434Z,21.21
2022-08-03T03:17:32.426Z,21.21
2022-08-03T03:18:32.427Z,21.16
2022-08-03T03:19:32.419Z,21.18
2022-08-03T03:20:32.373Z,21.15
2022-08-03T03:21:32.369Z,21.16
2022-08-03T03:22:32.390Z,21.15
2022-08-03T03:23:32.346Z,21.16
2022-08-03T03:24:32.360Z,21.15
2022-08-03T03:25:32.341Z,21.12
2022-08-03T03:26:32.319Z,21.13
2022-08-03T03:27:32.313Z,21.13
2022-08-03T03:28:32.330Z,21.13
2022-08-03T03:29:32.312Z,21.12
2022-08-03T03:30:32.282Z,21.12
2022-08-03T03:31:32.269Z,21.12
2022-08-03T03:32:32.264Z,21.12
2022-08-03T03:33:32.273Z,21.11
2022-08-03T03:34:32.347Z,21.08
2022-08-03T03:35:38.737Z,21.09
2022-08-03T03:36:32.247Z,21.08
2022-08-03T03:37:32.193Z,21.06
2022-08-03T03:38:32.194Z,21.09
2022-08-03T03:39:32.213Z,21.09
2022-08-03T03:40:32.166Z,21.08
2022-08-03T03:41:33.876Z,21.08
2022-08-03T03:42:32.151Z,21.08
2022-08-03T03:43:32.141Z,21.06
2022-08-03T03:44:32.149Z,21.06
2022-08-03T03:45:32.130Z,21.06
2022-08-03T03:46:32.105Z,21.06
2022-08-03T03:47:32.721Z,21.08
2022-08-03T03:48:32.236Z,21.11
2022-08-03T03:49:32.130Z,21.09
2022-08-03T03:50:32.067Z,21.09
2022-08-03T03:51:32.070Z,21.09
2022-08-03T03:52:32.044Z,21.09
2022-08-03T03:53:32.027Z,21.08
2022-08-03T03:54:32.036Z,21.09
2022-08-03T03:55:32.010Z,21.08
2022-08-03T03:56:32.002Z,21.08
2022-08-03T03:57:31.986Z,21.06
2022-08-03T03:58:32.002Z,21.08
2022-08-03T03:59:31.984Z,21.06
2022-08-03T04:00:31.979Z,21.05
2022-08-03T04:01:31.947Z,21.06
2022-08-03T04:02:32.000Z,21.06
2022-08-03T04:03:31.922Z,21.05
2022-08-03T04:04:31.940Z,21.00
2022-08-03T04:05:31.918Z,20.98
2022-08-03T04:06:31.900Z,20.97
2022-08-03T04:07:31.891Z,20.96
2022-08-03T04:08:31.894Z,20.96
2022-08-03T04:09:31.884Z,20.94
2022-08-03T04:10:31.856Z,20.93
2022-08-03T04:11:32.186Z,20.93
2022-08-03T04:12:31.855Z,20.94
2022-08-03T04:13:31.823Z,20.94
2022-08-03T04:14:31.835Z,20.94
2022-08-03T04:15:31.850Z,20.96
2022-08-03T04:16:31.794Z,20.97
2022-08-03T04:17:31.779Z,21.00
2022-08-03T04:18:31.815Z,21.01
2022-08-03T04:19:31.762Z,21.01
2022-08-03T04:20:31.752Z,21.05
2022-08-03T04:21:31.751Z,21.05
2022-08-03T04:22:31.731Z,21.05
2022-08-03T04:23:31.730Z,21.06
2022-08-03T04:24:31.729Z,21.08
2022-08-03T04:25:31.749Z,21.06
2022-08-03T04:26:31.693Z,21.06
2022-08-03T04:27:31.676Z,21.06
2022-08-03T04:28:32.095Z,21.06
2022-08-03T04:29:31.658Z,21.06
2022-08-03T04:30:31.663Z,21.09
2022-08-03T04:31:31.634Z,21.11
2022-08-03T04:32:31.658Z,21.12
2022-08-03T04:33:32.481Z,21.12
2022-08-03T04:34:31.614Z,21.11
2022-08-03T04:35:54.642Z,21.11
2022-08-03T04:36:31.603Z,21.13
2022-08-03T04:37:31.571Z,21.16
2022-08-03T04:38:31.635Z,21.18
2022-08-03T04:39:31.551Z,21.24
2022-08-03T04:40:31.551Z,21.26
2022-08-03T04:41:31.550Z,21.30
2022-08-03T04:42:31.535Z,21.33
2022-08-03T04:43:31.540Z,21.34
2022-08-03T04:44:31.533Z,21.36
2022-08-03T04:45:31.488Z,21.38
2022-08-03T04:46:31.489Z,21.40
2022-08-03T04:47:31.475Z,21.38
2022-08-03T04:48:31.483Z,21.40
2022-08-03T04:49:31.537Z,21.40
2022-08-03T04:50:31.450Z,21.42
2022-08-03T04:51:31.462Z,21.42
2022-08-03T04:52:31.446Z,21.43
2022-08-03T04:53:31.429Z,21.43
2022-08-03T04:54:31.461Z,21.43
2022-08-03T04:55:31.398Z,21.43
2022-08-03T04:56:31.379Z,21.46
2022-08-03T04:57:31.369Z,21.48
2022-08-03T04:58:31.384Z,21.51
2022-08-03T04:59:31.348Z,21.52
2022-08-03T05:00:31.383Z,21.53
2022-08-03T05:01:31.408Z,21.56
2022-08-03T05:02:31.469Z,21.58
2022-08-03T05:03:31.341Z,21.58
2022-08-03T05:04:31.354Z,21.61
2022-08-03T05:05:48.974Z,21.63
2022-08-03T05:06:31.334Z,21.64
2022-08-03T05:07:34.133Z,21.66
2022-08-03T05:08:31.355Z,21.68
2022-08-03T05:09:50.227Z,21.67
2022-08-03T05:10:31.251Z,21.68
2022-08-03T05:11:31.220Z,21.70
2022-08-03T05:12:32.981Z,21.73
2022-08-03T05:13:31.219Z,21.75
2022-08-03T05:14:31.205Z,21.75
2022-08-03T05:15:31.178Z,21.75
2022-08-03T05:16:31.175Z,21.79
2022-08-03T05:17:31.174Z,21.81
2022-08-03T05:18:31.199Z,21.81
2022-08-03T05:19:31.142Z,21.85
2022-08-03T05:20:31.144Z,21.86
2022-08-03T05:21:50.394Z,21.85
2022-08-03T05:22:31.129Z,21.86
2022-08-03T05:23:31.131Z,21.90
2022-08-03T05:24:31.092Z,21.91
2022-08-03T05:25:31.072Z,21.94
2022-08-03T05:26:31.094Z,21.96
2022-08-03T05:27:31.089Z,21.99
2022-08-03T05:28:31.069Z,22.02
2022-08-03T05:29:31.050Z,22.02
2022-08-03T05:30:34.116Z,22.06
2022-08-03T05:31:31.017Z,22.06
2022-08-03T05:32:31.010Z,22.08
2022-08-03T05:33:31.080Z,22.09
2022-08-03T05:34:30.999Z,22.14
2022-08-03T05:36:01.124Z,22.15
2022-08-03T05:36:30.996Z,22.19
2022-08-03T05:37:31.011Z,22.20
2022-08-03T05:38:35.134Z,22.24
2022-08-03T05:39:30.937Z,22.26
2022-08-03T05:40:30.930Z,22.29
2022-08-03T05:41:37.215Z,22.30
2022-08-03T05:42:30.915Z,22.31
2022-08-03T05:43:30.908Z,22.35
2022-08-03T05:44:30.892Z,22.35
2022-08-03T05:45:30.871Z,22.35
2022-08-03T05:46:31.090Z,22.36
2022-08-03T05:47:30.883Z,22.41
2022-08-03T05:48:30.881Z,22.44
2022-08-03T05:49:30.872Z,22.48
2022-08-03T05:50:30.827Z,22.46
2022-08-03T05:51:30.831Z,22.51
2022-08-03T05:52:30.955Z,22.52
2022-08-03T05:53:30.831Z,22.57
2022-08-03T05:54:55.404Z,22.57
2022-08-03T05:55:31.610Z,22.60
2022-08-03T05:56:30.804Z,22.64
2022-08-03T05:57:30.762Z,22.61
2022-08-03T05:58:30.804Z,22.64
2022-08-03T05:59:38.758Z,22.70
2022-08-03T06:00:30.788Z,22.74
2022-08-03T06:01:30.786Z,22.76
2022-08-03T06:02:30.707Z,22.81
2022-08-03T06:03:30.695Z,22.82
2022-08-03T06:04:31.137Z,22.85
2022-08-03T06:05:30.678Z,22.88
2022-08-03T06:06:32.394Z,22.86
2022-08-03T06:07:30.742Z,22.89
2022-08-03T06:08:30.652Z,22.91
2022-08-03T06:10:33.245Z,22.93
2022-08-03T06:10:42.326Z,22.97
2022-08-03T06:11:30.614Z,22.99
2022-08-03T06:12:30.605Z,23.01
2022-08-03T06:13:30.623Z,23.04
2022-08-03T06:14:30.606Z,23.09
2022-08-03T06:15:30.575Z,23.11
2022-08-03T06:16:30.567Z,23.14
2022-08-03T06:17:30.557Z,23.16
2022-08-03T06:18:30.570Z,23.18
2022-08-03T06:19:30.562Z,23.18
2022-08-03T06:20:30.553Z,23.21
2022-08-03T06:21:30.525Z,23.22
2022-08-03T06:22:30.504Z,23.25
2022-08-03T06:23:53.873Z,23.26
2022-08-03T06:24:30.521Z,23.26
2022-08-03T06:25:30.480Z,23.25
2022-08-03T06:26:31.038Z,23.26
2022-08-03T06:27:37.189Z,23.35
2022-08-03T06:28:52.615Z,23.34
2022-08-03T06:29:30.445Z,23.38
2022-08-03T06:30:30.415Z,23.41
2022-08-03T06:31:32.916Z,23.45
2022-08-03T06:32:30.388Z,23.45
2022-08-03T06:34:30.721Z,23.49
2022-08-03T06:34:40.135Z,23.52
2022-08-03T06:35:30.373Z,23.56
2022-08-03T06:36:30.373Z,23.62
2022-08-03T06:37:30.355Z,23.60
2022-08-03T06:38:30.343Z,23.63
2022-08-03T06:39:30.341Z,23.68
2022-08-03T06:40:30.338Z,23.72
2022-08-03T06:41:30.314Z,23.75
2022-08-03T06:42:30.295Z,23.78
2022-08-03T06:43:30.322Z,23.81
2022-08-03T06:44:30.300Z,23.86
2022-08-03T06:45:31.762Z,23.89
2022-08-03T06:46:30.291Z,23.93
2022-08-03T06:47:30.252Z,23.99
2022-08-03T06:48:30.234Z,24.02
2022-08-03T06:49:30.308Z,24.02
2022-08-03T06:50:30.222Z,24.05
2022-08-03T06:52:03.405Z,24.06
2022-08-03T06:52:37.204Z,24.08
2022-08-03T06:53:30.230Z,24.11
2022-08-03T06:54:32.840Z,24.14
2022-08-03T06:55:30.160Z,24.16
2022-08-03T06:56:30.148Z,24.18
2022-08-03T06:57:30.154Z,24.21
2022-08-03T06:58:30.126Z,24.26
2022-08-03T07:00:10.871Z,24.27
2022-08-03T07:00:30.159Z,24.30
2022-08-03T07:01:30.156Z,24.33
2022-08-03T07:02:30.085Z,24.36
2022-08-03T07:03:30.086Z,24.41
2022-08-03T07:04:30.093Z,24.49
2022-08-03T07:05:30.060Z,24.56
2022-08-03T07:06:30.097Z,24.64
2022-08-03T07:07:30.058Z,24.71
2022-08-03T07:08:33.357Z,24.75
2022-08-03T07:09:30.055Z,24.79
2022-08-03T07:10:30.029Z,24.83
2022-08-03T07:11:30.000Z,24.92
2022-08-03T07:12:29.988Z,25.01
2022-08-03T07:13:29.987Z,25.09
2022-08-03T07:14:30.011Z,25.16
2022-08-03T07:15:38.418Z,25.23
2022-08-03T07:16:29.976Z,25.29
2022-08-03T07:17:29.937Z,25.38
2022-08-03T07:18:30.206Z,25.42
2022-08-03T07:19:29.956Z,25.45
2022-08-03T07:20:32.593Z,25.46
2022-08-03T07:21:29.902Z,25.48
2022-08-03T07:22:29.886Z,25.48
2022-08-03T07:23:29.923Z,25.49
2022-08-03T07:24:29.926Z,25.51
2022-08-03T07:25:29.866Z,25.51
2022-08-03T07:26:29.896Z,25.51
2022-08-03T07:27:29.861Z,25.51
2022-08-03T07:28:29.826Z,25.53
2022-08-03T07:29:29.884Z,25.57
2022-08-03T07:30:29.817Z,25.66
2022-08-03T07:31:34.375Z,25.72
2022-08-03T07:32:29.800Z,25.75
2022-08-03T07:33:29.843Z,25.81
2022-08-03T07:34:29.777Z,25.89
2022-08-03T07:35:29.788Z,25.97
2022-08-03T07:36:29.738Z,26.04
2022-08-03T07:37:29.744Z,26.12
2022-08-03T07:38:29.765Z,26.13
2022-08-03T07:39:29.777Z,26.19
2022-08-03T07:40:30.652Z,26.19
2022-08-03T07:41:29.767Z,26.20
2022-08-03T07:42:29.742Z,26.23
2022-08-03T07:43:29.709Z,26.27
2022-08-03T07:44:29.683Z,26.27
2022-08-03T07:45:29.653Z,26.34
2022-08-03T07:46:29.754Z,26.42
2022-08-03T07:47:35.371Z,26.49
2022-08-03T07:48:29.630Z,26.59
2022-08-03T07:49:29.758Z,26.72
2022-08-03T07:50:29.598Z,26.87
2022-08-03T07:51:29.621Z,27.01
2022-08-03T07:52:29.626Z,27.16
2022-08-03T07:53:29.591Z,27.34
2022-08-03T07:54:29.583Z,27.65
2022-08-03T07:55:29.557Z,28.03
2022-08-03T07:56:29.566Z,28.48
2022-08-03T07:57:29.545Z,28.95
2022-08-03T07:58:29.523Z,29.48
2022-08-03T07:59:56.384Z,29.95
2022-08-03T08:00:32.244Z,30.51
2022-08-03T08:01:29.542Z,31.07
2022-08-03T08:02:29.491Z,31.62
2022-08-03T08:03:29.471Z,32.19
2022-08-03T08:04:29.492Z,32.44
2022-08-03T08:05:29.456Z,32.78
2022-08-03T08:06:29.434Z,32.93
2022-08-03T08:07:29.440Z,33.03
2022-08-03T08:08:29.433Z,33.14
2022-08-03T08:09:29.427Z,33.49
2022-08-03T08:10:29.395Z,33.99
2022-08-03T08:11:29.398Z,34.19
2022-08-03T08:12:29.374Z,34.65
2022-08-03T08:13:29.389Z,35.06
2022-08-03T08:14:29.381Z,35.09
2022-08-03T08:15:29.357Z,35.42
2022-08-03T08:16:29.344Z,35.59
2022-08-03T08:17:29.341Z,35.73
2022-08-03T08:18:29.331Z,35.93
2022-08-03T08:19:29.321Z,35.99
2022-08-03T08:20:31.397Z,36.19
2022-08-03T08:21:53.946Z,35.55
2022-08-03T08:22:30.446Z,34.73
2022-08-03T08:23:38.166Z,34.86
2022-08-03T08:24:29.281Z,35.28
2022-08-03T08:25:29.256Z,35.61
2022-08-03T08:26:30.226Z,35.99
2022-08-03T08:28:29.372Z,36.08
2022-08-03T08:28:36.544Z,36.49
2022-08-03T08:29:29.243Z,36.67
2022-08-03T08:30:29.278Z,36.60
2022-08-03T08:31:29.213Z,36.38
2022-08-03T08:32:29.192Z,35.95
2022-08-03T08:33:42.156Z,35.50
2022-08-03T08:34:29.189Z,34.60
2022-08-03T08:35:29.168Z,33.72
2022-08-03T08:36:29.169Z,32.90
2022-08-03T08:37:29.152Z,32.10
2022-08-03T08:38:29.133Z,31.59
2022-08-03T08:39:29.203Z,31.23
2022-08-03T08:40:29.118Z,30.68
2022-08-03T08:41:32.374Z,30.46
2022-08-03T08:42:29.101Z,30.26
2022-08-03T08:43:29.096Z,29.99
2022-08-03T08:44:29.100Z,29.78
2022-08-03T08:45:29.080Z,29.57
2022-08-03T08:46:29.065Z,29.35
2022-08-03T08:47:29.063Z,29.07
2022-08-03T08:48:29.044Z,28.97
2022-08-03T08:49:29.148Z,28.94
2022-08-03T08:50:29.074Z,28.87
2022-08-03T08:51:54.440Z,28.79
2022-08-03T08:52:31.813Z,28.69
2022-08-03T08:53:29.011Z,28.64
2022-08-03T08:54:29.015Z,28.67
2022-08-03T08:55:29.033Z,28.69
2022-08-03T08:56:28.990Z,28.61
2022-08-03T08:57:42.455Z,28.62
2022-08-03T08:58:28.951Z,28.64
2022-08-03T08:59:48.288Z,28.62
2022-08-03T09:00:28.964Z,28.57
2022-08-03T09:01:29.026Z,28.50
2022-08-03T09:02:28.906Z,28.40
2022-08-03T09:03:30.167Z,28.39
2022-08-03T09:04:28.895Z,28.43
2022-08-03T09:05:53.933Z,28.43
2022-08-03T09:06:28.872Z,28.46
2022-08-03T09:07:28.854Z,28.46
2022-08-03T09:08:28.843Z,28.40
2022-08-03T09:10:10.162Z,28.39
2022-08-03T09:10:28.826Z,28.38
2022-08-03T09:11:52.458Z,28.42
2022-08-03T09:12:41.515Z,28.40
2022-08-03T09:13:28.805Z,28.38
2022-08-03T09:14:35.228Z,28.35
2022-08-03T09:15:28.874Z,28.30
2022-08-03T09:16:28.764Z,28.21
2022-08-03T09:17:28.764Z,28.17
2022-08-03T09:18:32.218Z,28.21
2022-08-03T09:19:28.869Z,28.21
2022-08-03T09:20:28.729Z,28.24
2022-08-03T09:21:33.144Z,28.21
2022-08-03T09:22:28.702Z,28.18
2022-08-03T09:23:59.156Z,28.18
2022-08-03T09:24:41.118Z,28.17
2022-08-03T09:25:28.723Z,28.20
2022-08-03T09:26:28.667Z,28.24
2022-08-03T09:27:28.663Z,28.25
2022-08-03T09:28:59.704Z,28.25
2022-08-03T09:29:28.663Z,28.24
2022-08-03T09:30:34.459Z,28.18
2022-08-03T09:31:28.620Z,28.20
2022-08-03T09:32:28.607Z,28.20
2022-08-03T09:33:35.954Z,28.18
2022-08-03T09:34:28.617Z,28.21
2022-08-03T09:35:51.699Z,28.24
2022-08-03T09:36:28.570Z,28.23
2022-08-03T09:38:11.978Z,28.20
2022-08-03T09:38:28.570Z,28.13
2022-08-03T09:39:42.057Z,28.08
2022-08-03T09:40:28.528Z,28.06
2022-08-03T09:41:28.517Z,28.11
2022-08-03T09:42:28.510Z,28.14
2022-08-03T09:43:28.546Z,28.17
2022-08-03T09:44:28.505Z,28.20
2022-08-03T09:45:28.491Z,28.21
2022-08-03T09:46:28.462Z,28.20
2022-08-03T09:47:28.543Z,28.18
2022-08-03T09:48:28.446Z,28.17
2022-08-03T09:49:28.539Z,28.24
2022-08-03T09:50:28.424Z,28.38
2022-08-03T09:52:30.089Z,28.46
2022-08-03T09:52:51.865Z,28.54
2022-08-03T09:53:28.414Z,28.55
2022-08-03T09:54:28.403Z,28.57
2022-08-03T09:56:34.644Z,28.61
2022-08-03T09:56:41.471Z,28.65
2022-08-03T09:57:28.365Z,28.70
2022-08-03T09:58:28.338Z,28.74
2022-08-03T09:59:28.379Z,28.82
2022-08-03T10:00:28.324Z,28.82
2022-08-03T10:01:28.362Z,28.85
2022-08-03T10:02:28.311Z,28.83
2022-08-03T10:03:28.293Z,28.80
2022-08-03T10:04:28.293Z,28.76
2022-08-03T10:05:28.301Z,28.74
2022-08-03T10:06:29.099Z,28.67
2022-08-03T10:07:28.262Z,28.69
2022-08-03T10:08:28.248Z,28.74
2022-08-03T10:09:28.256Z,28.80
2022-08-03T10:10:30.916Z,28.74
2022-08-03T10:11:28.216Z,28.65
2022-08-03T10:12:28.208Z,28.64
2022-08-03T10:13:28.200Z,28.65
2022-08-03T10:14:28.218Z,28.67
2022-08-03T10:16:23.556Z,28.79
2022-08-03T10:16:29.995Z,28.79
2022-08-03T10:17:28.158Z,28.79
2022-08-03T10:18:28.161Z,28.70
2022-08-03T10:19:28.157Z,28.70
2022-08-03T10:20:28.124Z,28.72
2022-08-03T10:21:28.113Z,28.73
2022-08-03T10:22:28.109Z,28.69
2022-08-03T10:23:31.868Z,28.64
2022-08-03T10:24:28.112Z,28.54
2022-08-03T10:25:33.256Z,28.54
2022-08-03T10:26:28.071Z,28.55
2022-08-03T10:27:28.067Z,28.62
2022-08-03T10:28:28.045Z,28.70
2022-08-03T10:29:28.067Z,28.69
2022-08-03T10:30:28.028Z,28.65
2022-08-03T10:31:28.032Z,28.58
2022-08-03T10:32:28.025Z,28.57
2022-08-03T10:33:51.887Z,28.51
2022-08-03T10:34:28.012Z,28.50
2022-08-03T10:35:28.209Z,28.45
2022-08-03T10:36:28.206Z,28.39
2022-08-03T10:37:27.971Z,28.42
2022-08-03T10:38:27.949Z,28.43
2022-08-03T10:39:27.947Z,28.43
2022-08-03T10:41:27.917Z,28.39
2022-08-03T10:42:27.914Z,28.36
2022-08-03T10:43:27.898Z,28.32
2022-08-03T10:44:27.908Z,28.30
2022-08-03T10:45:27.875Z,28.40
2022-08-03T10:46:27.871Z,28.55
2022-08-03T10:47:27.855Z,28.67
2022-08-03T10:48:27.877Z,28.79
2022-08-03T10:49:34.667Z,28.85
2022-08-03T10:50:27.842Z,28.97
2022-08-03T10:51:27.809Z,29.05
2022-08-03T10:52:32.822Z,29.10
2022-08-03T10:53:27.819Z,29.14
2022-08-03T10:54:27.792Z,29.18
2022-08-03T10:55:27.776Z,29.23
2022-08-03T10:56:48.051Z,29.26
2022-08-03T10:57:27.754Z,29.29
2022-08-03T10:58:30.612Z,29.33
2022-08-03T10:59:28.283Z,29.45
2022-08-03T11:00:27.946Z,29.62
2022-08-03T11:01:27.710Z,29.76
2022-08-03T11:02:27.711Z,29.91
2022-08-03T11:03:27.705Z,29.97
2022-08-03T11:04:27.684Z,30.00
2022-08-03T11:05:27.670Z,29.97
2022-08-03T11:06:27.665Z,29.89
2022-08-03T11:07:27.662Z,29.85
2022-08-03T11:08:27.664Z,29.81
2022-08-03T11:09:27.634Z,29.78
2022-08-03T11:10:27.625Z,29.71
2022-08-03T11:11:27.609Z,29.64
2022-08-03T11:12:31.215Z,29.62
2022-08-03T11:13:27.604Z,29.62
2022-08-03T11:14:27.614Z,29.58
2022-08-03T11:15:27.565Z,29.60
2022-08-03T11:16:27.586Z,29.64
2022-08-03T11:17:27.547Z,29.69
2022-08-03T11:18:27.568Z,29.73
2022-08-03T11:19:27.687Z,29.84
2022-08-03T11:20:27.529Z,29.97
2022-08-03T11:21:30.354Z,30.08
2022-08-03T11:22:27.502Z,30.19
2022-08-03T11:24:03.941Z,30.25
2022-08-03T11:24:27.490Z,30.28
2022-08-03T11:25:53.801Z,30.30
2022-08-03T11:26:27.475Z,30.34
2022-08-03T11:27:27.451Z,30.36
2022-08-03T11:28:27.443Z,30.36
2022-08-03T11:29:27.472Z,30.34
2022-08-03T11:30:27.688Z,30.26
2022-08-03T11:31:48.732Z,30.22
2022-08-03T11:32:27.414Z,30.21
2022-08-03T11:33:27.393Z,30.19
2022-08-03T11:34:27.416Z,30.13
2022-08-03T11:35:27.371Z,30.10
2022-08-03T11:36:32.307Z,30.07
2022-08-03T11:37:31.497Z,30.07
2022-08-03T11:38:27.355Z,30.06
2022-08-03T11:39:27.364Z,30.08
2022-08-03T11:40:27.323Z,30.10
2022-08-03T11:41:27.313Z,30.16
2022-08-03T11:42:27.305Z,30.22
2022-08-03T11:43:30.842Z,30.28
2022-08-03T11:44:27.307Z,30.30
2022-08-03T11:45:27.265Z,30.32
2022-08-03T11:46:28.408Z,30.37
2022-08-03T11:47:27.245Z,30.48
2022-08-03T11:48:27.240Z,30.57
2022-08-03T11:49:27.300Z,30.61
2022-08-03T11:50:27.234Z,30.66
2022-08-03T11:51:27.203Z,30.66
2022-08-03T11:52:28.739Z,30.64
2022-08-03T11:53:27.191Z,30.66
2022-08-03T11:54:27.199Z,30.66
2022-08-03T11:55:30.559Z,30.66
2022-08-03T11:56:27.162Z,30.61
2022-08-03T11:59:18.963Z,30.60
2022-08-03T11:59:25.636Z,30.63
2022-08-03T11:59:30.645Z,30.66
2022-08-03T12:00:30.654Z,30.67
2022-08-03T12:01:30.626Z,30.64
2022-08-03T12:02:30.627Z,30.64
2022-08-03T12:03:30.658Z,30.63
2022-08-03T12:04:30.623Z,30.61
2022-08-03T12:05:30.590Z,30.63
2022-08-03T12:06:30.585Z,30.63
2022-08-03T12:08:04.210Z,30.64
2022-08-03T12:08:31.075Z,30.66
2022-08-03T12:09:30.566Z,30.72
2022-08-03T12:10:30.547Z,30.75
2022-08-03T12:11:30.525Z,30.78
2022-08-03T12:12:30.526Z,30.78
2022-08-03T12:14:44.470Z,30.75
2022-08-03T12:14:54.189Z,30.79
2022-08-03T12:15:30.484Z,30.85
2022-08-03T12:16:30.478Z,30.91
2022-08-03T12:17:30.468Z,30.96
2022-08-03T12:18:30.461Z,31.01
2022-08-03T12:19:30.458Z,31.05
2022-08-03T12:20:34.555Z,31.04
2022-08-03T12:21:30.427Z,30.97
2022-08-03T12:22:30.417Z,30.97
2022-08-03T12:23:30.885Z,30.93
2022-08-03T12:24:30.413Z,30.96
2022-08-03T12:25:38.827Z,30.98
2022-08-03T12:26:30.414Z,31.03
2022-08-03T12:27:30.364Z,31.10
2022-08-03T12:28:37.763Z,31.12
2022-08-03T12:29:30.370Z,31.19
2022-08-03T12:30:30.342Z,31.25
2022-08-03T12:31:30.323Z,31.31
2022-08-03T12:32:30.328Z,31.38
2022-08-03T12:33:30.305Z,31.40
2022-08-03T12:34:30.943Z,31.45
2022-08-03T12:35:30.284Z,31.50
2022-08-03T12:36:30.285Z,31.52
2022-08-03T12:37:30.568Z,31.56
2022-08-03T12:38:30.260Z,31.64
2022-08-03T12:39:31.507Z,31.72
2022-08-03T12:40:31.892Z,31.85
2022-08-03T12:41:30.228Z,32.05
2022-08-03T12:42:30.249Z,32.16
2022-08-03T12:43:30.204Z,32.25
2022-08-03T12:44:30.223Z,32.50
2022-08-03T12:45:30.182Z,32.71
2022-08-03T12:46:30.207Z,32.81
2022-08-03T12:47:30.164Z,33.15
2022-08-03T12:48:30.164Z,33.31
2022-08-03T12:49:30.440Z,33.43
2022-08-03T12:50:31.496Z,33.37
2022-08-03T12:51:30.126Z,33.40
2022-08-03T12:52:30.121Z,33.43
2022-08-03T12:53:30.136Z,33.35
2022-08-03T12:54:30.115Z,33.33